.
WxDataArchive / Data Records for 2005-12-27
2005-12-26 December 2005 2005-12-28

Data Records for Tuesday, 27 December 2005

Time	Temp	Chill	HIndex	Humid	Dewpt	 Wind 	HiWind	WindDir	Rain 	Barom 
-----	----	-----	------	-----	-----	------	------	-------	-----	----- 
00:00	33.1	33.1	33.1	80	27.6	2	5	248	0.00	29.940 
00:05	33.1	33.1	33.1	81	27.9	3	9	248	0.00	29.940 
00:10	32.9	32.9	32.9	81	27.7	3	7	248	0.00	29.940 
00:15	32.9	32.9	32.9	81	27.7	3	7	248	0.00	29.935 
00:20	32.8	32.8	32.8	81	27.6	2	5	248	0.00	29.935 
00:25	32.8	32.8	32.8	81	27.6	2	4	248	0.00	29.935 
00:30	32.7	32.7	32.7	81	27.5	2	5	248	0.00	29.928 
00:35	32.7	32.7	32.7	81	27.5	2	5	248	0.00	29.928 
00:40	32.7	32.7	32.7	82	27.8	2	6	248	0.00	29.928 
00:45	32.7	32.7	32.7	82	27.8	1	7	225	0.00	29.923 
00:50	32.7	32.7	32.7	82	27.8	2	6	248	0.00	29.923 
00:55	32.7	32.7	32.7	81	27.5	2	5	248	0.00	29.923 
01:00	32.7	32.7	32.7	81	27.5	2	4	225	0.00	29.932 
01:05	32.7	32.7	32.7	82	27.8	2	6	248	0.00	29.932 
01:10	32.7	32.7	32.7	82	27.8	2	4	248	0.00	29.932 
01:15	32.7	32.7	32.7	82	27.8	2	5	248	0.00	29.930 
01:20	32.7	32.7	32.7	82	27.8	2	7	248	0.00	29.930 
01:25	32.7	32.7	32.7	82	27.8	2	4	248	0.00	29.930 
01:30	32.7	32.7	32.7	82	27.8	3	6	248	0.00	29.922 
01:35	32.7	32.7	32.7	82	27.8	2	5	225	0.00	29.922 
01:40	32.7	32.7	32.7	82	27.8	2	5	248	0.00	29.922 
01:45	32.7	32.7	32.7	82	27.8	2	4	248	0.00	29.918 
01:50	32.7	32.7	32.7	83	28.1	2	4	248	0.00	29.918 
01:55	32.7	32.7	32.7	83	28.1	3	6	248	0.00	29.918 
02:00	32.7	32.7	32.7	83	28.1	3	7	248	0.00	29.913 
02:05	32.7	32.7	32.7	83	28.1	3	6	248	0.00	29.913 
02:10	32.7	32.7	32.7	83	28.1	2	9	248	0.00	29.913 
02:15	32.7	32.7	32.7	84	28.4	2	6	248	0.00	29.923 
02:20	32.7	32.7	32.7	84	28.4	3	5	248	0.00	29.923 
02:25	32.7	32.7	32.7	84	28.4	3	5	248	0.00	29.923 
02:30	32.7	32.7	32.7	84	28.4	2	5	248	0.00	29.924 
02:35	32.8	32.8	32.8	84	28.5	2	5	248	0.00	29.924 
02:40	32.8	32.8	32.8	84	28.5	2	6	248	0.00	29.924 
02:45	32.8	29.0	32.8	84	28.5	4	7	248	0.00	29.927 
02:50	32.8	32.8	32.8	84	28.5	3	6	248	0.00	29.927 
02:55	32.8	32.8	32.8	84	28.5	2	5	248	0.00	29.927 
03:00	32.8	32.8	32.8	84	28.5	2	5	248	0.00	29.929 
03:05	32.8	32.8	32.8	84	28.5	2	7	248	0.00	29.929 
03:10	32.8	32.8	32.8	85	28.8	3	9	248	0.00	29.929 
03:15	32.7	32.7	32.7	85	28.7	3	10	248	0.00	29.931 
03:20	32.7	32.7	32.7	85	28.7	2	5	248	0.00	29.931 
03:25	32.7	32.7	32.7	85	28.7	2	7	248	0.00	29.931 
03:30	32.7	32.7	32.7	85	28.7	2	4	248	0.00	29.931 
03:35	32.7	32.7	32.7	85	28.7	3	6	248	0.00	29.931 
03:40	32.7	28.9	32.7	85	28.7	4	11	248	0.00	29.931 
03:45	32.7	32.7	32.7	85	28.7	2	5	248	0.00	29.927 
03:50	32.7	32.7	32.7	85	28.7	2	5	248	0.00	29.927 
03:55	32.7	32.7	32.7	85	28.7	2	5	248	0.00	29.927 
04:00	32.7	32.7	32.7	85	28.7	3	7	248	0.00	29.925 
04:05	32.7	32.7	32.7	85	28.7	3	9	248	0.00	29.925 
04:10	32.7	32.7	32.7	85	28.7	2	6	248	0.00	29.925 
04:15	32.7	32.7	32.7	85	28.7	2	5	248	0.00	29.925 
04:20	32.7	32.7	32.7	85	28.7	2	5	248	0.00	29.925 
04:25	32.7	32.7	32.7	85	28.7	2	6	248	0.00	29.925 
04:30	32.7	32.7	32.7	85	28.7	2	5	248	0.00	29.927 
04:35	32.7	32.7	32.7	85	28.7	2	5	248	0.00	29.927 
04:40	32.7	32.7	32.7	86	29.0	2	5	248	0.00	29.927 
04:45	32.7	32.7	32.7	86	29.0	1	3	248	0.00	29.920 
04:50	32.5	32.5	32.5	86	28.8	2	5	248	0.00	29.920 
04:55	32.5	32.5	32.5	86	28.8	1	5	248	0.00	29.920 
05:00	32.4	32.4	32.4	87	29.0	2	5	248	0.00	29.911 
05:05	32.4	32.4	32.4	87	29.0	2	4	248	0.00	29.911 
05:10	32.2	32.2	32.2	88	29.1	3	10	248	0.00	29.911 
05:15	32.2	32.2	32.2	88	29.1	2	4	248	0.00	29.906 
05:20	32.2	32.2	32.2	88	29.1	1	3	248	0.00	29.906 
05:25	32.2	32.2	32.2	88	29.1	1	3	248	0.00	29.906 
05:30	32.2	32.2	32.2	88	29.1	1	4	248	0.00	29.904 
05:35	32.2	32.2	32.2	88	29.1	1	3	68	0.00	29.904 
05:40	32.2	32.2	32.2	88	29.1	2	4	248	0.00	29.904 
05:45	32.2	32.2	32.2	89	29.3	1	4	248	0.00	29.899 
05:50	32.2	32.2	32.2	89	29.3	1	4	248	0.00	29.899 
05:55	32.2	32.2	32.2	89	29.3	1	3	225	0.00	29.899 
06:00	32.2	32.2	32.2	89	29.3	1	4	112	0.00	29.888 
06:05	32.2	32.2	32.2	89	29.3	0	2	112	0.00	29.888 
06:10	32.2	32.2	32.2	89	29.3	2	5	90	0.00	29.888 
06:15	32.1	32.1	32.1	90	29.5	1	3	68	0.00	29.885 
06:20	32.1	32.1	32.1	90	29.5	1	4	68	0.00	29.885 
06:25	32.1	32.1	32.1	90	29.5	2	5	112	0.00	29.885 
06:30	32.1	32.1	32.1	90	29.5	2	4	112	0.00	29.877 
06:35	32.1	32.1	32.1	91	29.8	2	5	90	0.00	29.877 
06:40	32.1	32.1	32.1	91	29.8	1	4	90	0.00	29.877 
06:45	32.1	32.1	32.1	91	29.8	2	5	112	0.00	29.872 
06:50	32.1	32.1	32.1	91	29.8	2	5	90	0.00	29.872 
06:55	32.1	32.1	32.1	91	29.8	2	5	112	0.00	29.872 
07:00	32.1	32.1	32.1	91	29.8	2	6	90	0.00	29.869 
07:05	32.1	32.1	32.1	91	29.8	2	6	90	0.00	29.869 
07:10	32.1	32.1	32.1	91	29.8	2	6	90	0.00	29.869 
07:15	32.1	32.1	32.1	91	29.8	2	5	90	0.00	29.863 
07:20	32.2	32.2	32.2	91	29.9	1	5	112	0.00	29.863 
07:25	32.2	32.2	32.2	92	30.1	2	5	90	0.00	29.863 
07:30	32.2	32.2	32.2	92	30.1	2	4	90	0.00	29.854 
07:35	32.2	32.2	32.2	92	30.1	2	6	90	0.00	29.854 
07:40	32.2	32.2	32.2	92	30.1	2	5	112	0.00	29.854 
07:45	32.2	32.2	32.2	92	30.1	3	7	90	0.00	29.853 
07:50	32.4	32.4	32.4	92	30.3	2	6	90	0.00	29.853 
07:55	32.4	32.4	32.4	92	30.3	2	7	90	0.00	29.853 
08:00	32.4	32.4	32.4	92	30.3	3	8	90	0.00	29.853 
08:05	32.4	32.4	32.4	92	30.3	1	4	112	0.00	29.853 
08:10	32.4	32.4	32.4	92	30.3	1	4	90	0.00	29.853 
08:15	32.5	32.5	32.5	92	30.4	3	5	112	0.00	29.851 
08:20	32.5	32.5	32.5	92	30.4	2	4	112	0.00	29.851 
08:25	32.5	32.5	32.5	92	30.4	2	5	90	0.00	29.851 
08:30	32.7	32.7	32.7	92	30.6	2	4	112	0.00	29.844 
08:35	32.7	32.7	32.7	92	30.6	2	6	90	0.00	29.844 
08:40	32.8	32.8	32.8	92	30.7	1	5	112	0.00	29.844 
08:45	32.8	32.8	32.8	92	30.7	2	4	112	0.00	29.839 
08:50	32.8	32.8	32.8	92	30.7	2	6	112	0.00	29.839 
08:55	32.9	32.9	32.9	92	30.8	2	4	90	0.00	29.839 
09:00	32.9	32.9	32.9	92	30.8	1	4	112	0.00	29.840 
09:05	33.1	33.1	33.1	92	31.0	1	4	112	0.00	29.840 
09:10	33.1	33.1	33.1	92	31.0	2	5	45	0.00	29.840 
09:15	33.2	33.2	33.2	92	31.1	2	7	68	0.00	29.839 
09:20	33.2	33.2	33.2	92	31.1	2	5	90	0.00	29.839 
09:25	33.4	33.4	33.4	92	31.3	3	7	90	0.00	29.839 
09:30	33.5	33.5	33.5	92	31.4	2	5	90	0.00	29.836 
09:35	33.5	33.5	33.5	91	31.2	1	5	90	0.00	29.836 
09:40	33.7	33.7	33.7	91	31.4	1	2	112	0.00	29.836 
09:45	33.7	33.7	33.7	91	31.4	2	4	68	0.00	29.836 
09:50	33.8	33.8	33.8	91	31.5	2	4	112	0.00	29.836 
09:55	33.8	33.8	33.8	91	31.5	2	4	90	0.00	29.836 
10:00	34.0	34.0	34.0	91	31.7	1	4	112	0.00	29.837 
10:05	34.1	34.1	34.1	90	31.5	2	5	90	0.00	29.837 
10:10	34.3	34.3	34.3	90	31.7	3	6	90	0.00	29.837 
10:15	34.3	34.3	34.3	90	31.7	2	5	90	0.00	29.836 
10:20	34.4	34.4	34.4	89	31.5	2	7	68	0.00	29.836 
10:25	34.4	34.4	34.4	89	31.5	3	6	90	0.00	29.836 
10:30	34.4	34.4	34.4	89	31.5	2	5	90	0.00	29.836 
10:35	34.6	34.6	34.6	89	31.7	3	9	90	0.00	29.836 
10:40	34.6	34.6	34.6	89	31.7	2	4	68	0.00	29.836 
10:45	34.7	34.7	34.7	89	31.8	1	3	112	0.00	29.832 
10:50	34.9	34.9	34.9	88	31.7	2	5	112	0.00	29.832 
10:55	35.0	35.0	35.0	88	31.8	2	4	112	0.00	29.832 
11:00	35.3	35.3	35.3	88	32.1	2	4	90	0.00	29.821 
11:05	35.5	35.5	35.5	87	32.0	2	4	112	0.00	29.821 
11:10	35.6	35.6	35.6	87	32.1	1	5	112	0.00	29.821 
11:15	35.8	35.8	35.8	87	32.3	3	10	90	0.00	29.817 
11:20	35.9	35.9	35.9	87	32.4	2	5	112	0.00	29.817 
11:25	36.0	36.0	36.0	86	32.2	3	6	112	0.00	29.817 
11:30	36.3	36.3	36.3	86	32.5	2	5	112	0.00	29.807 
11:35	36.6	36.6	36.6	86	32.8	1	3	112	0.00	29.807 
11:40	36.8	36.8	36.8	84	32.4	3	7	90	0.00	29.807 
11:45	36.9	36.9	36.9	85	32.8	2	6	112	0.00	29.795 
11:50	37.0	37.0	37.0	84	32.6	2	3	112	0.00	29.795 
11:55	37.2	37.2	37.2	84	32.8	2	6	112	0.00	29.795 
12:00	37.2	37.2	37.2	84	32.8	2	5	90	0.00	29.787 
12:05	37.5	37.5	37.5	84	33.1	1	4	112	0.00	29.787 
12:10	37.6	37.6	37.6	83	32.9	2	6	112	0.00	29.787 
12:15	37.8	37.8	37.8	83	33.1	2	5	90	0.00	29.777 
12:20	37.9	37.9	37.9	83	33.2	2	6	90	0.00	29.777 
12:25	38.0	38.0	38.0	83	33.3	2	6	90	0.00	29.777 
12:30	38.0	38.0	38.0	82	33.0	3	11	112	0.00	29.769 
12:35	38.0	38.0	38.0	83	33.3	2	5	112	0.00	29.769 
12:40	38.2	38.2	38.2	82	33.2	2	7	90	0.00	29.769 
12:45	38.3	38.3	38.3	82	33.3	2	5	90	0.00	29.758 
12:50	38.5	38.5	38.5	82	33.5	2	4	112	0.00	29.758 
12:55	38.8	38.8	38.8	81	33.5	1	4	90	0.00	29.758 
13:00	38.8	38.8	38.8	81	33.5	2	5	90	0.00	29.750 
13:05	39.1	39.1	39.1	81	33.8	1	3	112	0.00	29.750 
13:10	39.3	39.3	39.3	80	33.7	2	4	90	0.00	29.750 
13:15	39.5	39.5	39.5	80	33.9	2	4	112	0.00	29.739 
13:20	39.6	39.6	39.6	80	33.9	1	4	90	0.00	29.739 
13:25	39.9	39.9	39.9	80	34.2	2	6	112	0.00	29.739 
13:30	39.9	39.9	39.9	80	34.2	2	5	0	0.00	29.731 
13:35	40.2	40.2	40.2	79	34.2	1	4	112	0.00	29.731 
13:40	40.3	40.3	40.3	79	34.3	1	3	112	0.00	29.731 
13:45	40.3	40.3	40.3	79	34.3	2	5	90	0.00	29.722 
13:50	40.3	40.3	40.3	78	34.0	2	5	112	0.00	29.722 
13:55	40.5	40.5	40.5	78	34.2	2	7	90	0.00	29.722 
14:00	40.6	40.6	40.6	79	34.6	1	3	112	0.00	29.718 
14:05	40.8	40.8	40.8	78	34.5	1	4	90	0.00	29.718 
14:10	40.9	40.9	40.9	77	34.3	2	5	90	0.00	29.718 
14:15	40.9	40.9	40.9	78	34.6	2	5	90	0.00	29.706 
14:20	41.1	41.1	41.1	78	34.8	2	5	112	0.00	29.706 
14:25	41.1	41.1	41.1	77	34.4	1	4	112	0.00	29.706 
14:30	41.2	41.2	41.2	78	34.9	2	4	112	0.00	29.705 
14:35	41.3	41.3	41.3	76	34.3	2	5	112	0.00	29.705 
14:40	41.6	41.6	41.6	77	34.9	0	2	135	0.00	29.705 
14:45	41.8	41.8	41.8	77	35.1	1	3	112	0.00	29.709 
14:50	41.8	41.8	41.8	76	34.8	1	3	112	0.00	29.709 
14:55	41.8	41.8	41.8	76	34.8	2	4	112	0.00	29.709 
15:00	41.8	41.8	41.8	76	34.8	2	4	90	0.00	29.706 
15:05	41.8	41.8	41.8	76	34.8	1	4	112	0.00	29.706 
15:10	41.6	41.6	41.6	77	34.9	1	3	90	0.00	29.706 
15:15	41.5	41.5	41.5	77	34.8	2	5	112	0.00	29.704 
15:20	41.5	41.5	41.5	77	34.8	1	3	112	0.00	29.704 
15:25	41.5	41.5	41.5	76	34.5	2	4	135	0.00	29.704 
15:30	41.6	41.6	41.6	77	34.9	2	4	90	0.00	29.701 
15:35	41.6	41.6	41.6	77	34.9	2	5	112	0.00	29.701 
15:40	41.8	41.8	41.8	77	35.1	1	2	112	0.00	29.701 
15:45	41.6	41.6	41.6	77	34.9	2	4	90	0.00	29.703 
15:50	41.3	41.3	41.3	77	34.6	2	6	112	0.00	29.703 
15:55	41.2	41.2	41.2	78	34.9	2	5	112	0.00	29.703 
16:00	41.1	41.1	41.1	78	34.8	1	3	112	0.00	29.702 
16:05	40.9	40.9	40.9	78	34.6	1	3	112	0.00	29.702 
16:10	40.8	40.8	40.8	78	34.5	2	5	112	0.00	29.702 
16:15	40.6	40.6	40.6	79	34.6	2	4	112	0.00	29.705 
16:20	40.6	40.6	40.6	79	34.6	2	4	112	0.00	29.705 
16:25	40.5	40.5	40.5	79	34.5	1	3	112	0.00	29.705 
16:30	40.3	40.3	40.3	79	34.3	1	3	135	0.00	29.702 
16:35	40.3	40.3	40.3	80	34.6	1	2	90	0.00	29.702 
16:40	40.1	40.1	40.1	80	34.4	1	3	112	0.00	29.702 
16:45	39.8	39.8	39.8	81	34.5	2	4	112	0.00	29.702 
16:50	39.3	39.3	39.3	81	34.0	2	3	112	0.00	29.702 
16:55	39.1	39.1	39.1	82	34.1	1	3	112	0.00	29.702 
17:00	38.8	38.8	38.8	83	34.1	1	3	112	0.00	29.694 
17:05	38.5	38.5	38.5	83	33.8	1	3	112	0.00	29.694 
17:10	38.2	38.2	38.2	83	33.5	1	3	112	0.00	29.694 
17:15	38.0	38.0	38.0	84	33.6	1	3	112	0.00	29.680 
17:20	37.9	37.9	37.9	84	33.5	1	4	135	0.00	29.680 
17:25	37.8	37.8	37.8	84	33.4	2	4	112	0.00	29.680 
17:30	37.6	37.6	37.6	84	33.2	1	3	112	0.00	29.677 
17:35	37.3	37.3	37.3	85	33.2	1	3	112	0.00	29.677 
17:40	37.2	37.2	37.2	86	33.4	1	3	112	0.00	29.677 
17:45	36.9	36.9	36.9	86	33.1	1	2	112	0.00	29.680 
17:50	36.9	36.9	36.9	87	33.4	1	2	112	0.00	29.680 
17:55	37.0	37.0	37.0	87	33.5	1	3	112	0.00	29.680 
18:00	37.2	37.2	37.2	87	33.7	1	4	112	0.00	29.676 
18:05	37.3	37.3	37.3	86	33.5	1	3	90	0.00	29.676 
18:10	37.2	37.2	37.2	86	33.4	1	2	90	0.00	29.676 
18:15	37.0	37.0	37.0	86	33.2	1	2	90	0.00	29.676 
18:20	36.9	36.9	36.9	86	33.1	1	2	90	0.00	29.676 
18:25	36.8	36.8	36.8	87	33.3	1	2	90	0.00	29.676 
18:30	36.5	36.5	36.5	87	33.0	1	2	90	0.00	29.678 
18:35	36.5	36.5	36.5	87	33.0	1	3	90	0.00	29.678 
18:40	36.5	36.5	36.5	87	33.0	1	1	90	0.00	29.678 
18:45	36.3	36.3	36.3	88	33.1	1	2	90	0.00	29.680 
18:50	36.5	36.5	36.5	88	33.3	1	2	90	0.00	29.680 
18:55	36.6	36.6	36.6	88	33.4	1	3	90	0.00	29.680 
19:00	36.9	36.9	36.9	87	33.4	1	3	90	0.00	29.678 
19:05	37.2	37.2	37.2	87	33.7	1	3	90	0.00	29.678 
19:10	37.3	37.3	37.3	87	33.8	1	3	90	0.00	29.678 
19:15	37.5	37.5	37.5	86	33.7	2	4	90	0.00	29.677 
19:20	37.5	37.5	37.5	86	33.7	1	3	90	0.00	29.677 
19:25	37.6	37.6	37.6	86	33.8	1	4	90	0.00	29.677 
19:30	37.6	37.6	37.6	86	33.8	1	3	90	0.00	29.684 
19:35	37.6	37.6	37.6	86	33.8	2	4	90	0.00	29.684 
19:40	37.8	37.8	37.8	86	34.0	1	3	90	0.00	29.684 
19:45	37.8	37.8	37.8	86	34.0	0	1	90	0.00	29.680 
19:50	37.8	37.8	37.8	86	34.0	1	3	90	0.00	29.680 
19:55	37.9	37.9	37.9	86	34.1	2	4	90	0.00	29.680 
20:00	38.0	38.0	38.0	86	34.2	1	5	90	0.00	29.677 
20:05	38.0	38.0	38.0	86	34.2	1	3	90	0.00	29.677 
20:10	38.0	38.0	38.0	86	34.2	1	2	90	0.00	29.677 
20:15	38.0	38.0	38.0	87	34.5	1	3	90	0.00	29.679 
20:20	38.0	38.0	38.0	87	34.5	1	3	90	0.00	29.679 
20:25	38.0	38.0	38.0	87	34.5	1	3	90	0.00	29.679 
20:30	38.0	38.0	38.0	87	34.5	1	2	90	0.00	29.677 
20:35	38.0	38.0	38.0	87	34.5	2	3	90	0.00	29.677 
20:40	38.0	38.0	38.0	87	34.5	1	3	90	0.00	29.677 
20:45	38.0	38.0	38.0	87	34.5	1	3	112	0.00	29.676 
20:50	38.0	38.0	38.0	88	34.8	1	2	112	0.00	29.676 
20:55	37.9	37.9	37.9	88	34.7	1	3	112	0.00	29.676 
21:00	37.9	37.9	37.9	88	34.7	0	1	112	0.00	29.675 
21:05	37.8	37.8	37.8	88	34.6	1	2	112	0.00	29.675 
21:10	37.8	37.8	37.8	89	34.9	0	2	112	0.00	29.675 
21:15	37.8	37.8	37.8	89	34.9	0	2	112	0.00	29.673 
21:20	37.8	37.8	37.8	89	34.9	1	2	112	0.00	29.673 
21:25	37.8	37.8	37.8	89	34.9	1	2	112	0.00	29.673 
21:30	37.8	37.8	37.8	89	34.9	1	3	112	0.00	29.664 
21:35	37.8	37.8	37.8	90	35.1	1	2	112	0.00	29.664 
21:40	37.8	37.8	37.8	90	35.1	0	2	112	0.00	29.664 
21:45	37.8	37.8	37.8	90	35.1	1	2	112	0.00	29.660 
21:50	37.8	37.8	37.8	90	35.1	0	1	112	0.00	29.660 
21:55	37.6	37.6	37.6	90	34.9	1	2	112	0.00	29.660 
22:00	37.6	37.6	37.6	91	35.2	0	2	112	0.00	29.658 
22:05	37.6	37.6	37.6	91	35.2	1	2	112	0.00	29.658 
22:10	37.6	37.6	37.6	91	35.2	0	2	112	0.00	29.658 
22:15	37.6	37.6	37.6	91	35.2	0	2	112	0.00	29.652 
22:20	37.6	37.6	37.6	91	35.2	1	3	112	0.00	29.652 
22:25	37.5	37.5	37.5	91	35.1	1	3	112	0.00	29.652 
22:30	37.5	37.5	37.5	91	35.1	2	4	112	0.00	29.643 
22:35	37.5	37.5	37.5	91	35.1	2	3	90	0.00	29.643 
22:40	37.5	37.5	37.5	91	35.1	1	3	90	0.00	29.643 
22:45	37.5	37.5	37.5	91	35.1	1	3	90	0.00	29.636 
22:50	37.6	37.6	37.6	91	35.2	1	2	90	0.00	29.636 
22:55	37.8	37.8	37.8	91	35.4	1	2	90	0.00	29.636 
23:00	37.9	37.9	37.9	91	35.5	1	3	90	0.00	29.628 
23:05	38.0	38.0	38.0	91	35.6	2	4	90	0.00	29.628 
23:10	38.2	38.2	38.2	91	35.8	1	3	90	0.00	29.628 
23:15	38.3	38.3	38.3	91	35.9	1	2	90	0.00	29.621 
23:20	38.3	38.3	38.3	91	35.9	1	2	90	0.00	29.621 
23:25	38.5	38.5	38.5	91	36.1	1	3	90	0.00	29.621 
23:30	38.5	38.5	38.5	91	36.1	1	2	90	0.00	29.608 
23:35	38.6	38.6	38.6	91	36.2	2	3	90	0.00	29.608 
23:40	38.6	38.6	38.6	91	36.2	1	3	90	0.00	29.608 
23:45	38.6	38.6	38.6	91	36.2	2	3	90	0.00	29.600 
23:50	38.8	38.8	38.8	91	36.4	2	4	112	0.00	29.600 
23:55	38.8	38.8	38.8	91	36.4	2	4	112	0.00	29.600 

CoCoRaHS
IN-AL-39
A2 Web Hosting
Creative Commons License
GoDaddy
Look for:

loaded 2017-12-13 10:08:44 • last modified 2010-11-18 10:43:29
Privacy PolicyDisclaimer
• wx.awcolley.com is powered by PmWiki v.2002016 •
• all content (unless otherwise noted) © 2017 A W Colley